sensor_id;sensor_type;location;lat;lon;timestamp;P1;durP1;ratioP1;P2;durP2;ratioP2
41229;SDS011;26964;50.428;19.218;2023-06-22T00:00:59;13.1;;;9.5;;
41229;SDS011;26964;50.428;19.218;2023-06-22T00:02:01;11.3;;;8.9;;
41229;SDS011;26964;50.428;19.218;2023-06-22T00:02:59;12.6;;;9.4;;
41229;SDS011;26964;50.428;19.218;2023-06-22T00:03:59;14.7;;;9.9;;
41229;SDS011;26964;50.428;19.218;2023-06-22T00:04:59;12.9;;;9.4;;
41229;SDS011;26964;50.428;19.218;2023-06-22T00:05:59;14.9;;;9.4;;
41229;SDS011;26964;50.428;19.218;2023-06-22T00:06:59;13.9;;;10.0;;
41229;SDS011;26964;50.428;19.218;2023-06-22T00:08:59;15.1;;;9.5;;
41229;SDS011;26964;50.428;19.218;2023-06-22T00:09:59;11.4;;;8.8;;
41229;SDS011;26964;50.428;19.218;2023-06-22T00:10:59;11.1;;;9.4;;
41229;SDS011;26964;50.428;19.218;2023-06-22T00:11:59;13.7;;;11.1;;
41229;SDS011;26964;50.428;19.218;2023-06-22T00:12:59;13.2;;;10.2;;
41229;SDS011;26964;50.428;19.218;2023-06-22T00:13:59;12.1;;;9.1;;
41229;SDS011;26964;50.428;19.218;2023-06-22T00:14:59;13.0;;;9.9;;
41229;SDS011;26964;50.428;19.218;2023-06-22T00:15:59;14.7;;;10.0;;
41229;SDS011;26964;50.428;19.218;2023-06-22T00:16:59;13.4;;;10.2;;
41229;SDS011;26964;50.428;19.218;2023-06-22T00:17:59;13.6;;;10.4;;
41229;SDS011;26964;50.428;19.218;2023-06-22T00:19:02;13.0;;;10.1;;
41229;SDS011;26964;50.428;19.218;2023-06-22T00:19:59;13.4;;;9.8;;
41229;SDS011;26964;50.428;19.218;2023-06-22T00:20:59;13.4;;;9.9;;
41229;SDS011;26964;50.428;19.218;2023-06-22T00:21:59;15.4;;;10.0;;
41229;SDS011;26964;50.428;19.218;2023-06-22T00:22:59;12.3;;;10.4;;
41229;SDS011;26964;50.428;19.218;2023-06-22T00:24:02;12.8;;;9.9;;
41229;SDS011;26964;50.428;19.218;2023-06-22T00:24:59;14.7;;;10.9;;
41229;SDS011;26964;50.428;19.218;2023-06-22T00:25:59;14.8;;;11.3;;
41229;SDS011;26964;50.428;19.218;2023-06-22T00:26:59;13.4;;;10.0;;
41229;SDS011;26964;50.428;19.218;2023-06-22T00:27:59;14.8;;;10.6;;
41229;SDS011;26964;50.428;19.218;2023-06-22T00:28:59;14.6;;;10.7;;
41229;SDS011;26964;50.428;19.218;2023-06-22T00:29:59;16.4;;;10.9;;
41229;SDS011;26964;50.428;19.218;2023-06-22T00:30:59;15.4;;;10.4;;
41229;SDS011;26964;50.428;19.218;2023-06-22T00:31:59;13.8;;;10.9;;
41229;SDS011;26964;50.428;19.218;2023-06-22T00:32:59;13.7;;;10.2;;
41229;SDS011;26964;50.428;19.218;2023-06-22T00:33:59;14.7;;;11.0;;
41229;SDS011;26964;50.428;19.218;2023-06-22T00:34:59;16.1;;;11.6;;
41229;SDS011;26964;50.428;19.218;2023-06-22T00:35:59;12.3;;;10.8;;
41229;SDS011;26964;50.428;19.218;2023-06-22T00:36:59;22.4;;;12.0;;
41229;SDS011;26964;50.428;19.218;2023-06-22T00:37:59;15.3;;;11.9;;
41229;SDS011;26964;50.428;19.218;2023-06-22T00:38:59;15.0;;;11.8;;
41229;SDS011;26964;50.428;19.218;2023-06-22T00:39:59;14.8;;;11.3;;
41229;SDS011;26964;50.428;19.218;2023-06-22T00:40:59;15.7;;;11.9;;
41229;SDS011;26964;50.428;19.218;2023-06-22T00:41:59;12.5;;;11.2;;
41229;SDS011;26964;50.428;19.218;2023-06-22T00:43:00;16.8;;;12.4;;
41229;SDS011;26964;50.428;19.218;2023-06-22T00:43:59;14.8;;;12.3;;
41229;SDS011;26964;50.428;19.218;2023-06-22T00:45:03;15.5;;;12.5;;
41229;SDS011;26964;50.428;19.218;2023-06-22T00:45:59;15.9;;;11.9;;
41229;SDS011;26964;50.428;19.218;2023-06-22T00:46:59;14.0;;;12.0;;
41229;SDS011;26964;50.428;19.218;2023-06-22T00:47:59;15.4;;;12.5;;
41229;SDS011;26964;50.428;19.218;2023-06-22T00:48:59;17.5;;;12.2;;
41229;SDS011;26964;50.428;19.218;2023-06-22T00:49:59;14.9;;;11.9;;
41229;SDS011;26964;50.428;19.218;2023-06-22T00:50:59;14.5;;;11.6;;
41229;SDS011;26964;50.428;19.218;2023-06-22T00:51:59;15.4;;;12.0;;
41229;SDS011;26964;50.428;19.218;2023-06-22T00:53:00;26.7;;;12.0;;
41229;SDS011;26964;50.428;19.218;2023-06-22T00:53:59;16.8;;;12.2;;
41229;SDS011;26964;50.428;19.218;2023-06-22T00:54:59;15.6;;;12.4;;
41229;SDS011;26964;50.428;19.218;2023-06-22T00:55:59;17.7;;;12.7;;
41229;SDS011;26964;50.428;19.218;2023-06-22T00:56:59;14.5;;;11.8;;
41229;SDS011;26964;50.428;19.218;2023-06-22T00:57:59;16.7;;;12.2;;
41229;SDS011;26964;50.428;19.218;2023-06-22T00:58:59;16.4;;;12.1;;
41229;SDS011;26964;50.428;19.218;2023-06-22T00:59:59;16.6;;;12.1;;
41229;SDS011;26964;50.428;19.218;2023-06-22T01:00:59;15.0;;;12.3;;
41229;SDS011;26964;50.428;19.218;2023-06-22T01:01:59;14.7;;;12.3;;
41229;SDS011;26964;50.428;19.218;2023-06-22T01:02:59;16.6;;;12.5;;
41229;SDS011;26964;50.428;19.218;2023-06-22T01:03:59;14.9;;;12.4;;
41229;SDS011;26964;50.428;19.218;2023-06-22T01:04:59;16.9;;;13.0;;
41229;SDS011;26964;50.428;19.218;2023-06-22T01:06:05;15.8;;;13.4;;
41229;SDS011;26964;50.428;19.218;2023-06-22T01:07:01;16.4;;;12.9;;
41229;SDS011;26964;50.428;19.218;2023-06-22T01:08:02;17.4;;;12.8;;
41229;SDS011;26964;50.428;19.218;2023-06-22T01:09:00;17.3;;;12.5;;
41229;SDS011;26964;50.428;19.218;2023-06-22T01:10:02;14.4;;;12.5;;
41229;SDS011;26964;50.428;19.218;2023-06-22T01:11:00;16.1;;;12.3;;
41229;SDS011;26964;50.428;19.218;2023-06-22T01:12:00;15.0;;;11.7;;
41229;SDS011;26964;50.428;19.218;2023-06-22T01:13:01;17.8;;;12.1;;
41229;SDS011;26964;50.428;19.218;2023-06-22T01:14:00;14.0;;;11.7;;
41229;SDS011;26964;50.428;19.218;2023-06-22T01:15:02;18.5;;;13.0;;
41229;SDS011;26964;50.428;19.218;2023-06-22T01:16:00;17.4;;;11.8;;
41229;SDS011;26964;50.428;19.218;2023-06-22T01:16:59;16.9;;;12.5;;
41229;SDS011;26964;50.428;19.218;2023-06-22T01:17:59;16.1;;;11.8;;
41229;SDS011;26964;50.428;19.218;2023-06-22T01:19:00;17.4;;;12.3;;
41229;SDS011;26964;50.428;19.218;2023-06-22T01:19:59;15.9;;;12.5;;
41229;SDS011;26964;50.428;19.218;2023-06-22T01:20:59;17.1;;;12.7;;
41229;SDS011;26964;50.428;19.218;2023-06-22T01:21:59;17.0;;;14.3;;
41229;SDS011;26964;50.428;19.218;2023-06-22T01:25:01;16.5;;;11.8;;
41229;SDS011;26964;50.428;19.218;2023-06-22T01:28:02;15.8;;;12.8;;
41229;SDS011;26964;50.428;19.218;2023-06-22T01:28:59;19.3;;;12.4;;
41229;SDS011;26964;50.428;19.218;2023-06-22T01:29:59;19.3;;;13.1;;
41229;SDS011;26964;50.428;19.218;2023-06-22T01:30:59;15.4;;;12.8;;
41229;SDS011;26964;50.428;19.218;2023-06-22T01:31:59;15.3;;;12.5;;
41229;SDS011;26964;50.428;19.218;2023-06-22T01:32:59;18.2;;;12.9;;
41229;SDS011;26964;50.428;19.218;2023-06-22T01:34:00;17.9;;;12.8;;
41229;SDS011;26964;50.428;19.218;2023-06-22T01:35:00;16.3;;;12.6;;
41229;SDS011;26964;50.428;19.218;2023-06-22T01:35:59;15.1;;;12.5;;
41229;SDS011;26964;50.428;19.218;2023-06-22T01:36:59;18.2;;;12.5;;
41229;SDS011;26964;50.428;19.218;2023-06-22T01:37:59;18.1;;;13.5;;
41229;SDS011;26964;50.428;19.218;2023-06-22T01:38:59;17.8;;;12.6;;
41229;SDS011;26964;50.428;19.218;2023-06-22T01:39:59;15.1;;;12.7;;
41229;SDS011;26964;50.428;19.218;2023-06-22T01:40:59;16.5;;;13.0;;
41229;SDS011;26964;50.428;19.218;2023-06-22T01:41:59;14.4;;;11.6;;
41229;SDS011;26964;50.428;19.218;2023-06-22T01:42:59;15.2;;;12.5;;
41229;SDS011;26964;50.428;19.218;2023-06-22T01:43:59;16.6;;;12.4;;
41229;SDS011;26964;50.428;19.218;2023-06-22T01:44:59;13.8;;;11.7;;
41229;SDS011;26964;50.428;19.218;2023-06-22T01:46:00;16.5;;;12.8;;
41229;SDS011;26964;50.428;19.218;2023-06-22T01:46:59;17.1;;;12.7;;
41229;SDS011;26964;50.428;19.218;2023-06-22T01:48:00;17.3;;;12.6;;
41229;SDS011;26964;50.428;19.218;2023-06-22T01:48:59;16.2;;;12.8;;
41229;SDS011;26964;50.428;19.218;2023-06-22T01:49:59;18.9;;;13.2;;
41229;SDS011;26964;50.428;19.218;2023-06-22T01:50:59;18.3;;;13.1;;
41229;SDS011;26964;50.428;19.218;2023-06-22T01:51:59;15.8;;;12.2;;
41229;SDS011;26964;50.428;19.218;2023-06-22T01:52:59;16.1;;;12.4;;
41229;SDS011;26964;50.428;19.218;2023-06-22T01:53:59;16.1;;;12.6;;
41229;SDS011;26964;50.428;19.218;2023-06-22T01:54:59;16.6;;;12.3;;
41229;SDS011;26964;50.428;19.218;2023-06-22T01:55:59;18.5;;;13.2;;
41229;SDS011;26964;50.428;19.218;2023-06-22T01:56:59;18.7;;;13.3;;
41229;SDS011;26964;50.428;19.218;2023-06-22T01:57:59;18.9;;;13.2;;
41229;SDS011;26964;50.428;19.218;2023-06-22T01:59:02;19.6;;;13.3;;
41229;SDS011;26964;50.428;19.218;2023-06-22T02:00:00;16.4;;;13.9;;
41229;SDS011;26964;50.428;19.218;2023-06-22T02:01:02;17.3;;;13.0;;
41229;SDS011;26964;50.428;19.218;2023-06-22T02:02:00;15.1;;;13.1;;
41229;SDS011;26964;50.428;19.218;2023-06-22T02:03:00;17.9;;;12.4;;
41229;SDS011;26964;50.428;19.218;2023-06-22T02:04:01;20.2;;;13.4;;
41229;SDS011;26964;50.428;19.218;2023-06-22T02:05:01;18.2;;;13.2;;
41229;SDS011;26964;50.428;19.218;2023-06-22T02:06:01;18.2;;;13.6;;
41229;SDS011;26964;50.428;19.218;2023-06-22T02:06:59;18.0;;;13.6;;
41229;SDS011;26964;50.428;19.218;2023-06-22T02:08:00;16.9;;;13.3;;
41229;SDS011;26964;50.428;19.218;2023-06-22T02:09:00;19.1;;;13.2;;
41229;SDS011;26964;50.428;19.218;2023-06-22T02:10:02;19.1;;;13.2;;
41229;SDS011;26964;50.428;19.218;2023-06-22T02:10:59;19.1;;;13.2;;
41229;SDS011;26964;50.428;19.218;2023-06-22T02:11:59;17.9;;;13.0;;
41229;SDS011;26964;50.428;19.218;2023-06-22T02:12:59;19.2;;;13.8;;
41229;SDS011;26964;50.428;19.218;2023-06-22T02:13:59;20.4;;;13.9;;
41229;SDS011;26964;50.428;19.218;2023-06-22T02:14:59;17.6;;;13.0;;
41229;SDS011;26964;50.428;19.218;2023-06-22T02:15:59;17.9;;;12.7;;
41229;SDS011;26964;50.428;19.218;2023-06-22T02:16:59;18.7;;;13.3;;
41229;SDS011;26964;50.428;19.218;2023-06-22T02:17:59;16.6;;;12.8;;
41229;SDS011;26964;50.428;19.218;2023-06-22T02:19:00;18.1;;;14.1;;
41229;SDS011;26964;50.428;19.218;2023-06-22T02:20:00;17.3;;;12.7;;
41229;SDS011;26964;50.428;19.218;2023-06-22T02:20:59;16.5;;;13.2;;
41229;SDS011;26964;50.428;19.218;2023-06-22T02:21:59;18.0;;;13.3;;
41229;SDS011;26964;50.428;19.218;2023-06-22T02:22:59;14.6;;;12.6;;
41229;SDS011;26964;50.428;19.218;2023-06-22T02:23:59;17.5;;;13.2;;
41229;SDS011;26964;50.428;19.218;2023-06-22T02:24:59;17.5;;;12.7;;
41229;SDS011;26964;50.428;19.218;2023-06-22T02:25:59;15.9;;;13.1;;
41229;SDS011;26964;50.428;19.218;2023-06-22T02:26:59;15.4;;;13.8;;
41229;SDS011;26964;50.428;19.218;2023-06-22T02:27:59;18.3;;;13.4;;
41229;SDS011;26964;50.428;19.218;2023-06-22T02:28:59;18.7;;;12.9;;
41229;SDS011;26964;50.428;19.218;2023-06-22T02:29:59;17.8;;;13.0;;
41229;SDS011;26964;50.428;19.218;2023-06-22T02:31:01;20.2;;;14.0;;
41229;SDS011;26964;50.428;19.218;2023-06-22T02:31:59;19.5;;;14.7;;
41229;SDS011;26964;50.428;19.218;2023-06-22T02:32:59;20.3;;;14.1;;
41229;SDS011;26964;50.428;19.218;2023-06-22T02:33:59;21.2;;;14.1;;
41229;SDS011;26964;50.428;19.218;2023-06-22T02:34:59;18.3;;;13.1;;
41229;SDS011;26964;50.428;19.218;2023-06-22T02:35:59;19.3;;;14.0;;
41229;SDS011;26964;50.428;19.218;2023-06-22T02:36:59;18.4;;;14.1;;
41229;SDS011;26964;50.428;19.218;2023-06-22T02:37:59;18.0;;;14.3;;
41229;SDS011;26964;50.428;19.218;2023-06-22T02:38:59;21.3;;;13.8;;
41229;SDS011;26964;50.428;19.218;2023-06-22T02:39:59;20.9;;;14.2;;
41229;SDS011;26964;50.428;19.218;2023-06-22T02:40:59;20.9;;;13.8;;
41229;SDS011;26964;50.428;19.218;2023-06-22T02:41:59;19.1;;;13.7;;
41229;SDS011;26964;50.428;19.218;2023-06-22T02:42:59;19.6;;;13.7;;
41229;SDS011;26964;50.428;19.218;2023-06-22T02:43:59;19.9;;;13.7;;
41229;SDS011;26964;50.428;19.218;2023-06-22T02:44:59;18.7;;;13.4;;
41229;SDS011;26964;50.428;19.218;2023-06-22T02:45:59;18.9;;;14.5;;
41229;SDS011;26964;50.428;19.218;2023-06-22T02:46:59;19.9;;;13.5;;
41229;SDS011;26964;50.428;19.218;2023-06-22T02:47:59;17.5;;;12.5;;
41229;SDS011;26964;50.428;19.218;2023-06-22T02:48:59;18.4;;;13.4;;
41229;SDS011;26964;50.428;19.218;2023-06-22T02:49:59;18.6;;;12.7;;
41229;SDS011;26964;50.428;19.218;2023-06-22T02:50:59;17.1;;;13.0;;
41229;SDS011;26964;50.428;19.218;2023-06-22T02:51:59;16.4;;;12.9;;
41229;SDS011;26964;50.428;19.218;2023-06-22T02:53:01;18.6;;;13.3;;
41229;SDS011;26964;50.428;19.218;2023-06-22T02:53:59;19.6;;;13.4;;
41229;SDS011;26964;50.428;19.218;2023-06-22T02:54:59;20.4;;;12.7;;
41229;SDS011;26964;50.428;19.218;2023-06-22T02:56:00;20.3;;;13.7;;
41229;SDS011;26964;50.428;19.218;2023-06-22T02:56:59;20.8;;;14.0;;
41229;SDS011;26964;50.428;19.218;2023-06-22T02:57:59;21.2;;;14.1;;
41229;SDS011;26964;50.428;19.218;2023-06-22T02:58:59;22.4;;;13.7;;
41229;SDS011;26964;50.428;19.218;2023-06-22T02:59:59;18.3;;;13.8;;
41229;SDS011;26964;50.428;19.218;2023-06-22T03:00:59;18.4;;;14.3;;
41229;SDS011;26964;50.428;19.218;2023-06-22T03:01:59;19.1;;;14.0;;
41229;SDS011;26964;50.428;19.218;2023-06-22T03:02:59;18.2;;;13.7;;
41229;SDS011;26964;50.428;19.218;2023-06-22T03:03:59;19.7;;;13.9;;
41229;SDS011;26964;50.428;19.218;2023-06-22T03:04:59;18.8;;;14.0;;
41229;SDS011;26964;50.428;19.218;2023-06-22T03:05:59;20.2;;;14.4;;
41229;SDS011;26964;50.428;19.218;2023-06-22T03:06:59;21.1;;;13.8;;
41229;SDS011;26964;50.428;19.218;2023-06-22T03:07:59;20.5;;;13.2;;
41229;SDS011;26964;50.428;19.218;2023-06-22T03:09:00;18.7;;;12.7;;
41229;SDS011;26964;50.428;19.218;2023-06-22T03:09:59;18.0;;;13.0;;
41229;SDS011;26964;50.428;19.218;2023-06-22T03:10:59;17.8;;;12.8;;
41229;SDS011;26964;50.428;19.218;2023-06-22T03:11:59;17.9;;;12.7;;
41229;SDS011;26964;50.428;19.218;2023-06-22T03:12:59;18.6;;;13.3;;
41229;SDS011;26964;50.428;19.218;2023-06-22T03:14:02;17.1;;;12.6;;
41229;SDS011;26964;50.428;19.218;2023-06-22T03:14:59;21.9;;;13.9;;
41229;SDS011;26964;50.428;19.218;2023-06-22T03:15:59;18.4;;;13.4;;
41229;SDS011;26964;50.428;19.218;2023-06-22T03:16:59;18.7;;;12.7;;
41229;SDS011;26964;50.428;19.218;2023-06-22T03:17:59;18.0;;;13.1;;
41229;SDS011;26964;50.428;19.218;2023-06-22T03:18:59;15.6;;;12.3;;
41229;SDS011;26964;50.428;19.218;2023-06-22T03:19:59;19.7;;;13.7;;
41229;SDS011;26964;50.428;19.218;2023-06-22T03:20:59;24.1;;;13.9;;
41229;SDS011;26964;50.428;19.218;2023-06-22T03:21:59;16.2;;;12.6;;
41229;SDS011;26964;50.428;19.218;2023-06-22T03:22:59;22.0;;;13.8;;
41229;SDS011;26964;50.428;19.218;2023-06-22T03:23:59;15.4;;;13.2;;
41229;SDS011;26964;50.428;19.218;2023-06-22T03:24:59;19.5;;;14.0;;
41229;SDS011;26964;50.428;19.218;2023-06-22T03:25:59;18.8;;;12.9;;
41229;SDS011;26964;50.428;19.218;2023-06-22T03:26:59;20.9;;;13.7;;
41229;SDS011;26964;50.428;19.218;2023-06-22T03:27:59;17.1;;;13.0;;
41229;SDS011;26964;50.428;19.218;2023-06-22T03:28:59;20.3;;;14.4;;
41229;SDS011;26964;50.428;19.218;2023-06-22T03:29:59;21.3;;;14.3;;
41229;SDS011;26964;50.428;19.218;2023-06-22T03:30:59;24.1;;;13.8;;
41229;SDS011;26964;50.428;19.218;2023-06-22T03:31:59;23.1;;;13.5;;
41229;SDS011;26964;50.428;19.218;2023-06-22T03:32:59;17.8;;;13.1;;
41229;SDS011;26964;50.428;19.218;2023-06-22T03:33:59;20.7;;;14.9;;
41229;SDS011;26964;50.428;19.218;2023-06-22T03:35:02;21.3;;;15.3;;
41229;SDS011;26964;50.428;19.218;2023-06-22T03:35:59;23.4;;;15.2;;
41229;SDS011;26964;50.428;19.218;2023-06-22T03:36:59;21.7;;;13.4;;
41229;SDS011;26964;50.428;19.218;2023-06-22T03:37:59;21.3;;;14.0;;
41229;SDS011;26964;50.428;19.218;2023-06-22T03:38:59;21.8;;;13.8;;
41229;SDS011;26964;50.428;19.218;2023-06-22T03:39:59;18.2;;;13.8;;
41229;SDS011;26964;50.428;19.218;2023-06-22T03:40:59;27.1;;;13.7;;
41229;SDS011;26964;50.428;19.218;2023-06-22T03:41:59;19.5;;;13.5;;
41229;SDS011;26964;50.428;19.218;2023-06-22T03:42:59;18.2;;;13.7;;
41229;SDS011;26964;50.428;19.218;2023-06-22T03:43:59;19.9;;;14.4;;
41229;SDS011;26964;50.428;19.218;2023-06-22T03:44:59;21.6;;;15.0;;
41229;SDS011;26964;50.428;19.218;2023-06-22T03:45:59;16.5;;;14.1;;
41229;SDS011;26964;50.428;19.218;2023-06-22T03:47:00;23.7;;;15.1;;
41229;SDS011;26964;50.428;19.218;2023-06-22T03:48:00;31.5;;;15.5;;
41229;SDS011;26964;50.428;19.218;2023-06-22T03:48:59;20.3;;;15.4;;
41229;SDS011;26964;50.428;19.218;2023-06-22T03:50:00;20.9;;;14.0;;
41229;SDS011;26964;50.428;19.218;2023-06-22T03:50:59;23.9;;;15.2;;
41229;SDS011;26964;50.428;19.218;2023-06-22T03:51:59;20.3;;;14.9;;
41229;SDS011;26964;50.428;19.218;2023-06-22T03:52:59;21.5;;;14.4;;
41229;SDS011;26964;50.428;19.218;2023-06-22T03:53:59;21.7;;;14.7;;
41229;SDS011;26964;50.428;19.218;2023-06-22T03:54:59;30.0;;;15.3;;
41229;SDS011;26964;50.428;19.218;2023-06-22T03:56:00;23.4;;;14.9;;
41229;SDS011;26964;50.428;19.218;2023-06-22T03:57:03;29.8;;;15.3;;
41229;SDS011;26964;50.428;19.218;2023-06-22T03:57:59;21.1;;;14.5;;
41229;SDS011;26964;50.428;19.218;2023-06-22T03:58:59;29.5;;;15.3;;
41229;SDS011;26964;50.428;19.218;2023-06-22T03:59:59;22.0;;;15.3;;
41229;SDS011;26964;50.428;19.218;2023-06-22T04:00:59;21.6;;;15.1;;
41229;SDS011;26964;50.428;19.218;2023-06-22T04:01:59;21.8;;;14.9;;
41229;SDS011;26964;50.428;19.218;2023-06-22T04:02:59;19.1;;;14.7;;
41229;SDS011;26964;50.428;19.218;2023-06-22T04:03:59;24.5;;;15.5;;
41229;SDS011;26964;50.428;19.218;2023-06-22T04:04:59;24.1;;;15.6;;
41229;SDS011;26964;50.428;19.218;2023-06-22T04:05:59;21.3;;;15.2;;
41229;SDS011;26964;50.428;19.218;2023-06-22T04:06:59;19.3;;;15.2;;
41229;SDS011;26964;50.428;19.218;2023-06-22T04:07:59;23.3;;;16.1;;
41229;SDS011;26964;50.428;19.218;2023-06-22T04:08:59;22.1;;;14.8;;
41229;SDS011;26964;50.428;19.218;2023-06-22T04:09:59;21.0;;;15.0;;
41229;SDS011;26964;50.428;19.218;2023-06-22T04:10:59;22.2;;;15.5;;
41229;SDS011;26964;50.428;19.218;2023-06-22T04:11:59;24.0;;;16.5;;
41229;SDS011;26964;50.428;19.218;2023-06-22T04:12:59;22.8;;;15.4;;
41229;SDS011;26964;50.428;19.218;2023-06-22T04:13:59;21.4;;;15.6;;
41229;SDS011;26964;50.428;19.218;2023-06-22T04:14:59;21.4;;;15.6;;
41229;SDS011;26964;50.428;19.218;2023-06-22T04:15:59;21.3;;;16.0;;
41229;SDS011;26964;50.428;19.218;2023-06-22T04:16:59;21.7;;;15.3;;
41229;SDS011;26964;50.428;19.218;2023-06-22T04:18:03;22.9;;;15.6;;
41229;SDS011;26964;50.428;19.218;2023-06-22T04:18:59;25.2;;;16.6;;
41229;SDS011;26964;50.428;19.218;2023-06-22T04:19:59;21.5;;;17.0;;
41229;SDS011;26964;50.428;19.218;2023-06-22T04:20:59;21.7;;;17.5;;
41229;SDS011;26964;50.428;19.218;2023-06-22T04:21:59;21.9;;;17.4;;
41229;SDS011;26964;50.428;19.218;2023-06-22T04:22:59;22.7;;;17.7;;
41229;SDS011;26964;50.428;19.218;2023-06-22T04:23:59;22.3;;;18.5;;
41229;SDS011;26964;50.428;19.218;2023-06-22T04:24:59;22.7;;;18.3;;
41229;SDS011;26964;50.428;19.218;2023-06-22T04:25:59;22.3;;;18.2;;
41229;SDS011;26964;50.428;19.218;2023-06-22T04:26:59;23.2;;;17.6;;
41229;SDS011;26964;50.428;19.218;2023-06-22T04:27:59;20.9;;;18.6;;
41229;SDS011;26964;50.428;19.218;2023-06-22T04:28:59;26.2;;;19.5;;
41229;SDS011;26964;50.428;19.218;2023-06-22T04:29:59;24.5;;;19.2;;
41229;SDS011;26964;50.428;19.218;2023-06-22T04:30:59;22.7;;;18.6;;
41229;SDS011;26964;50.428;19.218;2023-06-22T04:31:59;24.6;;;19.4;;
41229;SDS011;26964;50.428;19.218;2023-06-22T04:32:59;27.7;;;19.9;;
41229;SDS011;26964;50.428;19.218;2023-06-22T04:33:59;23.6;;;18.5;;
41229;SDS011;26964;50.428;19.218;2023-06-22T04:34:59;22.7;;;18.5;;
41229;SDS011;26964;50.428;19.218;2023-06-22T04:35:59;23.4;;;18.6;;
41229;SDS011;26964;50.428;19.218;2023-06-22T04:36:59;23.6;;;20.4;;
41229;SDS011;26964;50.428;19.218;2023-06-22T04:37:59;24.0;;;19.9;;
41229;SDS011;26964;50.428;19.218;2023-06-22T04:39:01;24.0;;;20.0;;
41229;SDS011;26964;50.428;19.218;2023-06-22T04:39:59;25.5;;;21.4;;
41229;SDS011;26964;50.428;19.218;2023-06-22T04:40:59;23.7;;;20.2;;
41229;SDS011;26964;50.428;19.218;2023-06-22T04:41:59;25.4;;;20.1;;
41229;SDS011;26964;50.428;19.218;2023-06-22T04:42:59;27.7;;;21.6;;
41229;SDS011;26964;50.428;19.218;2023-06-22T04:43:59;29.4;;;23.2;;
41229;SDS011;26964;50.428;19.218;2023-06-22T04:44:59;28.0;;;23.0;;
41229;SDS011;26964;50.428;19.218;2023-06-22T04:45:59;25.9;;;22.3;;
41229;SDS011;26964;50.428;19.218;2023-06-22T04:47:00;25.3;;;22.2;;
41229;SDS011;26964;50.428;19.218;2023-06-22T04:47:59;24.7;;;21.2;;
41229;SDS011;26964;50.428;19.218;2023-06-22T04:48:59;26.3;;;21.2;;
41229;SDS011;26964;50.428;19.218;2023-06-22T04:49:59;24.8;;;21.4;;
41229;SDS011;26964;50.428;19.218;2023-06-22T04:50:59;27.2;;;21.5;;
41229;SDS011;26964;50.428;19.218;2023-06-22T04:51:59;27.5;;;23.3;;
41229;SDS011;26964;50.428;19.218;2023-06-22T04:52:59;27.0;;;22.7;;
41229;SDS011;26964;50.428;19.218;2023-06-22T04:53:59;27.4;;;23.0;;
41229;SDS011;26964;50.428;19.218;2023-06-22T04:54:59;28.2;;;24.1;;
41229;SDS011;26964;50.428;19.218;2023-06-22T04:55:59;25.1;;;21.6;;
41229;SDS011;26964;50.428;19.218;2023-06-22T04:56:59;26.2;;;22.2;;
41229;SDS011;26964;50.428;19.218;2023-06-22T04:57:59;27.0;;;22.9;;
41229;SDS011;26964;50.428;19.218;2023-06-22T04:58:59;26.1;;;22.1;;
41229;SDS011;26964;50.428;19.218;2023-06-22T05:00:01;24.7;;;21.9;;
41229;SDS011;26964;50.428;19.218;2023-06-22T05:00:59;26.8;;;22.7;;
41229;SDS011;26964;50.428;19.218;2023-06-22T05:01:59;26.1;;;22.2;;
41229;SDS011;26964;50.428;19.218;2023-06-22T05:02:59;26.2;;;22.3;;
41229;SDS011;26964;50.428;19.218;2023-06-22T05:03:59;24.6;;;21.4;;
41229;SDS011;26964;50.428;19.218;2023-06-22T05:04:59;23.8;;;21.2;;
41229;SDS011;26964;50.428;19.218;2023-06-22T05:05:59;28.1;;;22.4;;
41229;SDS011;26964;50.428;19.218;2023-06-22T05:06:59;29.4;;;23.1;;
41229;SDS011;26964;50.428;19.218;2023-06-22T05:08:00;28.7;;;22.7;;
41229;SDS011;26964;50.428;19.218;2023-06-22T05:08:59;32.3;;;22.6;;
41229;SDS011;26964;50.428;19.218;2023-06-22T05:09:59;26.5;;;22.3;;
41229;SDS011;26964;50.428;19.218;2023-06-22T05:10:59;24.5;;;21.5;;
41229;SDS011;26964;50.428;19.218;2023-06-22T05:11:59;25.6;;;22.5;;
41229;SDS011;26964;50.428;19.218;2023-06-22T05:12:59;26.5;;;21.9;;
41229;SDS011;26964;50.428;19.218;2023-06-22T05:13:59;26.3;;;22.6;;
41229;SDS011;26964;50.428;19.218;2023-06-22T05:14:59;25.6;;;22.1;;
41229;SDS011;26964;50.428;19.218;2023-06-22T05:15:59;24.9;;;20.4;;
41229;SDS011;26964;50.428;19.218;2023-06-22T05:16:59;29.4;;;21.7;;
41229;SDS011;26964;50.428;19.218;2023-06-22T05:17:59;23.7;;;21.2;;
41229;SDS011;26964;50.428;19.218;2023-06-22T05:18:59;25.1;;;20.9;;
41229;SDS011;26964;50.428;19.218;2023-06-22T05:19:59;24.5;;;21.6;;
41229;SDS011;26964;50.428;19.218;2023-06-22T05:21:02;25.1;;;21.6;;
41229;SDS011;26964;50.428;19.218;2023-06-22T05:21:59;25.8;;;22.4;;
41229;SDS011;26964;50.428;19.218;2023-06-22T05:22:59;24.9;;;21.7;;
41229;SDS011;26964;50.428;19.218;2023-06-22T05:23:59;24.4;;;21.8;;
41229;SDS011;26964;50.428;19.218;2023-06-22T05:24:59;25.2;;;21.9;;
41229;SDS011;26964;50.428;19.218;2023-06-22T05:25:59;28.1;;;23.1;;
41229;SDS011;26964;50.428;19.218;2023-06-22T05:26:59;28.6;;;22.8;;
41229;SDS011;26964;50.428;19.218;2023-06-22T05:27:59;27.4;;;23.5;;
41229;SDS011;26964;50.428;19.218;2023-06-22T05:28:59;25.4;;;22.6;;
41229;SDS011;26964;50.428;19.218;2023-06-22T05:29:59;27.4;;;23.8;;
41229;SDS011;26964;50.428;19.218;2023-06-22T05:30:59;28.6;;;23.2;;
41229;SDS011;26964;50.428;19.218;2023-06-22T05:31:59;28.0;;;23.9;;
41229;SDS011;26964;50.428;19.218;2023-06-22T05:32:59;33.3;;;23.4;;
41229;SDS011;26964;50.428;19.218;2023-06-22T05:33:59;31.0;;;22.5;;
41229;SDS011;26964;50.428;19.218;2023-06-22T05:34:59;31.3;;;21.9;;
41229;SDS011;26964;50.428;19.218;2023-06-22T05:35:59;27.3;;;20.8;;
41229;SDS011;26964;50.428;19.218;2023-06-22T05:36:59;28.1;;;20.7;;
41229;SDS011;26964;50.428;19.218;2023-06-22T05:37:59;24.1;;;20.9;;
41229;SDS011;26964;50.428;19.218;2023-06-22T05:38:59;25.4;;;20.1;;
41229;SDS011;26964;50.428;19.218;2023-06-22T05:39:59;28.8;;;20.8;;
41229;SDS011;26964;50.428;19.218;2023-06-22T05:40:59;22.8;;;19.8;;
41229;SDS011;26964;50.428;19.218;2023-06-22T05:42:00;25.0;;;19.1;;
41229;SDS011;26964;50.428;19.218;2023-06-22T05:42:59;22.7;;;19.2;;
41229;SDS011;26964;50.428;19.218;2023-06-22T05:43:59;24.1;;;19.3;;
41229;SDS011;26964;50.428;19.218;2023-06-22T05:44:59;23.5;;;18.6;;
41229;SDS011;26964;50.428;19.218;2023-06-22T05:45:59;22.2;;;18.8;;
41229;SDS011;26964;50.428;19.218;2023-06-22T05:46:59;23.7;;;18.9;;
41229;SDS011;26964;50.428;19.218;2023-06-22T05:47:59;22.1;;;17.8;;
41229;SDS011;26964;50.428;19.218;2023-06-22T05:48:59;21.1;;;17.5;;
41229;SDS011;26964;50.428;19.218;2023-06-22T05:49:59;20.1;;;17.2;;
41229;SDS011;26964;50.428;19.218;2023-06-22T05:50:59;18.5;;;16.5;;
41229;SDS011;26964;50.428;19.218;2023-06-22T05:51:59;19.7;;;16.3;;
41229;SDS011;26964;50.428;19.218;2023-06-22T05:52:59;19.8;;;16.6;;
41229;SDS011;26964;50.428;19.218;2023-06-22T05:53:59;18.2;;;15.9;;
41229;SDS011;26964;50.428;19.218;2023-06-22T05:54:59;18.8;;;16.8;;
41229;SDS011;26964;50.428;19.218;2023-06-22T05:55:59;18.4;;;16.0;;
41229;SDS011;26964;50.428;19.218;2023-06-22T05:56:59;22.1;;;16.2;;
41229;SDS011;26964;50.428;19.218;2023-06-22T05:57:59;18.2;;;15.9;;
41229;SDS011;26964;50.428;19.218;2023-06-22T05:58:59;20.7;;;17.0;;
41229;SDS011;26964;50.428;19.218;2023-06-22T05:59:59;20.4;;;16.5;;
41229;SDS011;26964;50.428;19.218;2023-06-22T06:00:59;20.3;;;16.2;;
41229;SDS011;26964;50.428;19.218;2023-06-22T06:01:59;18.6;;;16.6;;